sensor_id;sensor_type;location;lat;lon;timestamp;P1;durP1;ratioP1;P2;durP2;ratioP2
23322;SDS011;11833;52.554;13.554;2023-02-05T01:02:43;3.28;;;2.72;;
23322;SDS011;11833;52.554;13.554;2023-02-05T01:05:09;3.70;;;2.47;;
23322;SDS011;11833;52.554;13.554;2023-02-05T01:07:35;5.05;;;3.03;;
23322;SDS011;11833;52.554;13.554;2023-02-05T01:10:01;3.63;;;2.63;;
23322;SDS011;11833;52.554;13.554;2023-02-05T01:12:28;4.75;;;2.60;;
23322;SDS011;11833;52.554;13.554;2023-02-05T01:14:54;2.85;;;2.25;;
23322;SDS011;11833;52.554;13.554;2023-02-05T01:17:20;3.20;;;2.58;;
23322;SDS011;11833;52.554;13.554;2023-02-05T01:19:45;3.95;;;2.72;;
23322;SDS011;11833;52.554;13.554;2023-02-05T01:22:11;4.80;;;2.25;;
23322;SDS011;11833;52.554;13.554;2023-02-05T01:24:37;6.35;;;2.33;;
23322;SDS011;11833;52.554;13.554;2023-02-05T01:27:03;4.70;;;2.17;;
23322;SDS011;11833;52.554;13.554;2023-02-05T01:29:29;3.80;;;2.17;;
23322;SDS011;11833;52.554;13.554;2023-02-05T01:31:55;6.60;;;2.28;;
23322;SDS011;11833;52.554;13.554;2023-02-05T01:34:20;3.22;;;2.67;;
23322;SDS011;11833;52.554;13.554;2023-02-05T01:36:46;2.50;;;2.20;;
23322;SDS011;11833;52.554;13.554;2023-02-05T01:39:12;3.08;;;2.15;;
23322;SDS011;11833;52.554;13.554;2023-02-05T01:41:39;4.88;;;2.20;;
23322;SDS011;11833;52.554;13.554;2023-02-05T01:44:12;4.15;;;2.15;;
23322;SDS011;11833;52.554;13.554;2023-02-05T01:46:43;3.92;;;2.50;;
23322;SDS011;11833;52.554;13.554;2023-02-05T01:49:18;4.60;;;2.97;;
23322;SDS011;11833;52.554;13.554;2023-02-05T01:51:52;2.28;;;1.45;;
23322;SDS011;11833;52.554;13.554;2023-02-05T01:54:21;2.15;;;1.75;;
23322;SDS011;11833;52.554;13.554;2023-02-05T01:56:54;4.15;;;1.98;;
23322;SDS011;11833;52.554;13.554;2023-02-05T01:59:27;1.98;;;1.60;;
23322;SDS011;11833;52.554;13.554;2023-02-05T02:01:57;2.97;;;1.90;;
23322;SDS011;11833;52.554;13.554;2023-02-05T02:04:43;4.32;;;2.20;;
23322;SDS011;11833;52.554;13.554;2023-02-05T02:07:22;1.75;;;1.63;;
23322;SDS011;11833;52.554;13.554;2023-02-05T02:09:49;2.65;;;2.00;;
23322;SDS011;11833;52.554;13.554;2023-02-05T02:12:27;2.30;;;1.92;;
23322;SDS011;11833;52.554;13.554;2023-02-05T02:15:00;2.42;;;1.83;;
23322;SDS011;11833;52.554;13.554;2023-02-05T02:17:33;4.20;;;2.47;;
23322;SDS011;11833;52.554;13.554;2023-02-05T02:20:04;3.10;;;2.17;;
23322;SDS011;11833;52.554;13.554;2023-02-05T02:33:43;3.30;;;2.20;;
23322;SDS011;11833;52.554;13.554;2023-02-05T02:36:28;3.03;;;2.25;;
23322;SDS011;11833;52.554;13.554;2023-02-05T02:39:20;4.05;;;1.85;;
23322;SDS011;11833;52.554;13.554;2023-02-05T02:41:56;5.35;;;1.92;;
23322;SDS011;11833;52.554;13.554;2023-02-05T02:47:03;2.15;;;1.90;;
23322;SDS011;11833;52.554;13.554;2023-02-05T02:52:25;3.80;;;2.28;;
23322;SDS011;11833;52.554;13.554;2023-02-05T02:54:58;2.33;;;2.03;;
23322;SDS011;11833;52.554;13.554;2023-02-05T02:57:29;3.83;;;2.38;;
23322;SDS011;11833;52.554;13.554;2023-02-05T02:59:59;2.67;;;2.35;;
23322;SDS011;11833;52.554;13.554;2023-02-05T03:02:30;3.65;;;2.50;;
23322;SDS011;11833;52.554;13.554;2023-02-05T03:05:07;6.32;;;3.47;;
23322;SDS011;11833;52.554;13.554;2023-02-05T03:07:42;5.32;;;3.92;;
23322;SDS011;11833;52.554;13.554;2023-02-05T03:13:10;4.75;;;3.45;;
23322;SDS011;11833;52.554;13.554;2023-02-05T03:15:37;5.13;;;3.63;;
23322;SDS011;11833;52.554;13.554;2023-02-05T03:18:07;4.05;;;3.20;;
23322;SDS011;11833;52.554;13.554;2023-02-05T03:20:35;4.68;;;3.17;;
23322;SDS011;11833;52.554;13.554;2023-02-05T03:23:10;7.70;;;2.83;;
23322;SDS011;11833;52.554;13.554;2023-02-05T03:25:36;4.18;;;2.80;;
23322;SDS011;11833;52.554;13.554;2023-02-05T03:28:02;3.40;;;3.03;;
23322;SDS011;11833;52.554;13.554;2023-02-05T03:30:31;5.07;;;3.45;;
23322;SDS011;11833;52.554;13.554;2023-02-05T03:42:12;6.25;;;2.88;;
23322;SDS011;11833;52.554;13.554;2023-02-05T03:45:16;4.82;;;2.63;;
23322;SDS011;11833;52.554;13.554;2023-02-05T03:50:52;4.25;;;2.72;;
23322;SDS011;11833;52.554;13.554;2023-02-05T03:53:35;2.85;;;2.55;;
23322;SDS011;11833;52.554;13.554;2023-02-05T03:56:25;6.78;;;3.38;;
23322;SDS011;11833;52.554;13.554;2023-02-05T03:58:58;2.97;;;2.58;;
23322;SDS011;11833;52.554;13.554;2023-02-05T04:01:25;4.65;;;2.63;;
23322;SDS011;11833;52.554;13.554;2023-02-05T04:03:51;3.92;;;2.45;;
23322;SDS011;11833;52.554;13.554;2023-02-05T04:06:17;3.90;;;3.20;;
23322;SDS011;11833;52.554;13.554;2023-02-05T04:08:43;3.90;;;2.83;;
23322;SDS011;11833;52.554;13.554;2023-02-05T04:11:10;5.05;;;3.28;;
23322;SDS011;11833;52.554;13.554;2023-02-05T04:13:36;4.03;;;2.67;;
23322;SDS011;11833;52.554;13.554;2023-02-05T04:16:02;5.85;;;2.60;;
23322;SDS011;11833;52.554;13.554;2023-02-05T04:18:28;2.90;;;2.63;;
23322;SDS011;11833;52.554;13.554;2023-02-05T04:20:53;5.82;;;3.38;;
23322;SDS011;11833;52.554;13.554;2023-02-05T04:23:19;5.38;;;2.90;;
23322;SDS011;11833;52.554;13.554;2023-02-05T04:25:50;3.33;;;2.70;;
23322;SDS011;11833;52.554;13.554;2023-02-05T04:28:18;3.47;;;2.60;;
23322;SDS011;11833;52.554;13.554;2023-02-05T04:30:43;3.53;;;2.75;;
23322;SDS011;11833;52.554;13.554;2023-02-05T04:33:09;3.25;;;2.90;;
23322;SDS011;11833;52.554;13.554;2023-02-05T04:35:35;4.47;;;2.75;;
23322;SDS011;11833;52.554;13.554;2023-02-05T04:38:01;6.38;;;3.15;;
23322;SDS011;11833;52.554;13.554;2023-02-05T04:40:27;7.25;;;3.17;;
23322;SDS011;11833;52.554;13.554;2023-02-05T04:42:53;5.63;;;3.35;;
23322;SDS011;11833;52.554;13.554;2023-02-05T04:45:18;4.32;;;3.33;;
23322;SDS011;11833;52.554;13.554;2023-02-05T04:47:44;6.05;;;2.88;;
23322;SDS011;11833;52.554;13.554;2023-02-05T04:50:10;4.45;;;2.80;;
23322;SDS011;11833;52.554;13.554;2023-02-05T04:52:36;4.88;;;2.75;;
23322;SDS011;11833;52.554;13.554;2023-02-05T04:55:01;3.83;;;2.95;;
23322;SDS011;11833;52.554;13.554;2023-02-05T04:57:28;4.10;;;3.08;;
23322;SDS011;11833;52.554;13.554;2023-02-05T04:59:55;4.20;;;2.88;;
23322;SDS011;11833;52.554;13.554;2023-02-05T05:02:21;4.90;;;3.22;;
23322;SDS011;11833;52.554;13.554;2023-02-05T05:04:48;4.40;;;3.03;;
23322;SDS011;11833;52.554;13.554;2023-02-05T05:07:14;3.75;;;2.63;;
23322;SDS011;11833;52.554;13.554;2023-02-05T05:09:40;4.93;;;2.75;;
23322;SDS011;11833;52.554;13.554;2023-02-05T05:12:06;5.28;;;2.92;;
23322;SDS011;11833;52.554;13.554;2023-02-05T05:14:32;4.53;;;2.90;;
23322;SDS011;11833;52.554;13.554;2023-02-05T05:16:58;4.57;;;2.92;;
23322;SDS011;11833;52.554;13.554;2023-02-05T05:19:23;4.57;;;3.10;;
23322;SDS011;11833;52.554;13.554;2023-02-05T05:21:49;5.45;;;3.13;;
23322;SDS011;11833;52.554;13.554;2023-02-05T05:24:15;7.10;;;3.25;;
23322;SDS011;11833;52.554;13.554;2023-02-05T05:26:40;4.53;;;2.88;;
23322;SDS011;11833;52.554;13.554;2023-02-05T05:29:09;4.03;;;2.80;;
23322;SDS011;11833;52.554;13.554;2023-02-05T05:31:36;5.38;;;3.10;;
23322;SDS011;11833;52.554;13.554;2023-02-05T05:34:02;8.13;;;3.50;;
23322;SDS011;11833;52.554;13.554;2023-02-05T05:36:28;4.45;;;3.08;;
23322;SDS011;11833;52.554;13.554;2023-02-05T05:38:54;7.43;;;3.05;;
23322;SDS011;11833;52.554;13.554;2023-02-05T05:41:21;5.80;;;3.38;;
23322;SDS011;11833;52.554;13.554;2023-02-05T05:44:06;6.40;;;3.75;;
23322;SDS011;11833;52.554;13.554;2023-02-05T05:46:34;4.53;;;3.58;;
23322;SDS011;11833;52.554;13.554;2023-02-05T05:49:00;6.13;;;3.95;;
23322;SDS011;11833;52.554;13.554;2023-02-05T05:51:27;6.03;;;3.95;;
23322;SDS011;11833;52.554;13.554;2023-02-05T05:53:54;6.05;;;3.55;;
23322;SDS011;11833;52.554;13.554;2023-02-05T05:56:21;7.03;;;3.80;;
23322;SDS011;11833;52.554;13.554;2023-02-05T05:58:47;5.88;;;3.85;;
23322;SDS011;11833;52.554;13.554;2023-02-05T06:01:14;8.38;;;3.78;;
23322;SDS011;11833;52.554;13.554;2023-02-05T06:03:43;7.15;;;3.83;;
23322;SDS011;11833;52.554;13.554;2023-02-05T06:06:09;9.20;;;4.57;;
23322;SDS011;11833;52.554;13.554;2023-02-05T06:08:36;5.55;;;3.58;;
23322;SDS011;11833;52.554;13.554;2023-02-05T06:11:02;5.57;;;3.70;;
23322;SDS011;11833;52.554;13.554;2023-02-05T06:13:28;8.68;;;3.97;;
23322;SDS011;11833;52.554;13.554;2023-02-05T06:15:53;6.15;;;3.72;;
23322;SDS011;11833;52.554;13.554;2023-02-05T06:18:19;5.38;;;3.95;;
23322;SDS011;11833;52.554;13.554;2023-02-05T06:20:45;7.00;;;3.50;;
23322;SDS011;11833;52.554;13.554;2023-02-05T06:23:11;5.70;;;3.35;;
23322;SDS011;11833;52.554;13.554;2023-02-05T06:25:37;4.10;;;3.30;;
23322;SDS011;11833;52.554;13.554;2023-02-05T06:28:03;9.18;;;4.18;;
23322;SDS011;11833;52.554;13.554;2023-02-05T06:30:29;6.90;;;3.70;;
23322;SDS011;11833;52.554;13.554;2023-02-05T06:32:55;6.30;;;3.53;;
23322;SDS011;11833;52.554;13.554;2023-02-05T06:35:22;6.70;;;3.83;;
23322;SDS011;11833;52.554;13.554;2023-02-05T06:37:48;6.20;;;4.03;;
23322;SDS011;11833;52.554;13.554;2023-02-05T06:40:14;6.88;;;3.88;;
23322;SDS011;11833;52.554;13.554;2023-02-05T06:42:42;9.85;;;3.67;;
23322;SDS011;11833;52.554;13.554;2023-02-05T06:45:09;5.93;;;3.83;;
23322;SDS011;11833;52.554;13.554;2023-02-05T06:47:35;8.60;;;3.72;;
23322;SDS011;11833;52.554;13.554;2023-02-05T06:50:01;7.35;;;4.03;;
23322;SDS011;11833;52.554;13.554;2023-02-05T06:52:28;5.85;;;4.35;;
23322;SDS011;11833;52.554;13.554;2023-02-05T06:54:54;6.45;;;3.05;;
23322;SDS011;11833;52.554;13.554;2023-02-05T06:57:20;7.88;;;3.88;;
23322;SDS011;11833;52.554;13.554;2023-02-05T06:59:45;8.38;;;3.60;;
23322;SDS011;11833;52.554;13.554;2023-02-05T07:02:12;5.55;;;3.20;;
23322;SDS011;11833;52.554;13.554;2023-02-05T07:04:38;8.38;;;3.58;;
23322;SDS011;11833;52.554;13.554;2023-02-05T07:07:04;6.53;;;3.58;;
23322;SDS011;11833;52.554;13.554;2023-02-05T07:09:30;7.60;;;3.92;;
23322;SDS011;11833;52.554;13.554;2023-02-05T07:11:56;5.68;;;3.42;;
23322;SDS011;11833;52.554;13.554;2023-02-05T07:14:21;3.33;;;3.03;;
23322;SDS011;11833;52.554;13.554;2023-02-05T07:16:47;4.95;;;3.75;;
23322;SDS011;11833;52.554;13.554;2023-02-05T07:19:14;5.90;;;3.30;;
23322;SDS011;11833;52.554;13.554;2023-02-05T07:21:40;7.43;;;4.40;;
23322;SDS011;11833;52.554;13.554;2023-02-05T07:24:06;5.90;;;4.30;;
23322;SDS011;11833;52.554;13.554;2023-02-05T07:26:32;6.57;;;3.97;;
23322;SDS011;11833;52.554;13.554;2023-02-05T07:28:59;6.72;;;4.10;;
23322;SDS011;11833;52.554;13.554;2023-02-05T07:31:27;7.50;;;3.65;;
23322;SDS011;11833;52.554;13.554;2023-02-05T07:33:53;6.57;;;3.63;;
23322;SDS011;11833;52.554;13.554;2023-02-05T07:36:19;9.48;;;4.80;;
23322;SDS011;11833;52.554;13.554;2023-02-05T07:38:45;7.18;;;4.20;;
23322;SDS011;11833;52.554;13.554;2023-02-05T07:41:12;8.10;;;4.50;;
23322;SDS011;11833;52.554;13.554;2023-02-05T07:43:39;6.07;;;3.33;;
23322;SDS011;11833;52.554;13.554;2023-02-05T07:46:07;7.88;;;3.90;;
23322;SDS011;11833;52.554;13.554;2023-02-05T07:48:36;5.95;;;3.95;;
23322;SDS011;11833;52.554;13.554;2023-02-05T07:51:02;6.38;;;4.13;;
23322;SDS011;11833;52.554;13.554;2023-02-05T07:53:29;5.70;;;3.90;;
23322;SDS011;11833;52.554;13.554;2023-02-05T07:55:55;9.15;;;4.35;;
23322;SDS011;11833;52.554;13.554;2023-02-05T07:58:21;7.82;;;4.35;;
23322;SDS011;11833;52.554;13.554;2023-02-05T08:00:47;7.07;;;3.92;;
23322;SDS011;11833;52.554;13.554;2023-02-05T08:03:13;5.63;;;3.58;;
23322;SDS011;11833;52.554;13.554;2023-02-05T08:05:39;5.78;;;3.45;;
23322;SDS011;11833;52.554;13.554;2023-02-05T08:08:05;4.45;;;3.42;;
23322;SDS011;11833;52.554;13.554;2023-02-05T08:10:31;5.43;;;3.38;;
23322;SDS011;11833;52.554;13.554;2023-02-05T08:12:57;6.93;;;4.03;;
23322;SDS011;11833;52.554;13.554;2023-02-05T08:15:23;6.85;;;3.58;;
23322;SDS011;11833;52.554;13.554;2023-02-05T08:17:50;5.75;;;3.47;;
23322;SDS011;11833;52.554;13.554;2023-02-05T08:20:16;6.30;;;3.78;;
23322;SDS011;11833;52.554;13.554;2023-02-05T08:22:42;5.90;;;3.40;;
23322;SDS011;11833;52.554;13.554;2023-02-05T08:25:10;8.93;;;4.30;;
23322;SDS011;11833;52.554;13.554;2023-02-05T08:27:38;5.93;;;4.10;;
23322;SDS011;11833;52.554;13.554;2023-02-05T08:30:07;6.63;;;3.55;;
23322;SDS011;11833;52.554;13.554;2023-02-05T08:32:36;7.57;;;3.70;;
23322;SDS011;11833;52.554;13.554;2023-02-05T08:35:02;9.57;;;5.43;;
23322;SDS011;11833;52.554;13.554;2023-02-05T08:37:28;7.50;;;3.72;;
23322;SDS011;11833;52.554;13.554;2023-02-05T08:39:54;6.13;;;3.80;;
23322;SDS011;11833;52.554;13.554;2023-02-05T08:42:20;5.38;;;3.53;;
23322;SDS011;11833;52.554;13.554;2023-02-05T08:44:46;4.18;;;3.78;;
23322;SDS011;11833;52.554;13.554;2023-02-05T08:47:17;10.95;;;4.10;;
23322;SDS011;11833;52.554;13.554;2023-02-05T08:49:44;8.35;;;4.22;;
23322;SDS011;11833;52.554;13.554;2023-02-05T08:52:10;5.95;;;3.80;;
23322;SDS011;11833;52.554;13.554;2023-02-05T08:54:35;5.13;;;3.65;;
23322;SDS011;11833;52.554;13.554;2023-02-05T08:57:01;6.57;;;3.92;;
23322;SDS011;11833;52.554;13.554;2023-02-05T08:59:27;7.68;;;4.10;;
23322;SDS011;11833;52.554;13.554;2023-02-05T09:01:53;5.88;;;3.72;;
23322;SDS011;11833;52.554;13.554;2023-02-05T09:04:19;6.40;;;3.88;;
23322;SDS011;11833;52.554;13.554;2023-02-05T09:06:47;7.00;;;3.75;;
23322;SDS011;11833;52.554;13.554;2023-02-05T09:09:13;8.00;;;4.13;;
23322;SDS011;11833;52.554;13.554;2023-02-05T09:11:40;10.27;;;5.63;;
23322;SDS011;11833;52.554;13.554;2023-02-05T09:14:06;5.10;;;4.00;;
23322;SDS011;11833;52.554;13.554;2023-02-05T09:16:33;6.13;;;3.88;;
23322;SDS011;11833;52.554;13.554;2023-02-05T09:19:00;5.28;;;3.85;;
23322;SDS011;11833;52.554;13.554;2023-02-05T09:21:26;4.00;;;3.47;;
23322;SDS011;11833;52.554;13.554;2023-02-05T09:23:52;4.07;;;3.30;;
23322;SDS011;11833;52.554;13.554;2023-02-05T09:26:19;5.05;;;3.38;;
23322;SDS011;11833;52.554;13.554;2023-02-05T09:28:45;6.78;;;3.33;;
23322;SDS011;11833;52.554;13.554;2023-02-05T09:31:12;6.15;;;3.10;;
23322;SDS011;11833;52.554;13.554;2023-02-05T09:33:42;5.22;;;3.03;;
23322;SDS011;11833;52.554;13.554;2023-02-05T09:36:19;5.95;;;3.40;;
23322;SDS011;11833;52.554;13.554;2023-02-05T09:38:47;4.45;;;3.03;;
23322;SDS011;11833;52.554;13.554;2023-02-05T09:41:19;5.53;;;3.15;;
23322;SDS011;11833;52.554;13.554;2023-02-05T09:43:58;4.45;;;3.10;;
23322;SDS011;11833;52.554;13.554;2023-02-05T09:47:10;5.38;;;3.33;;
23322;SDS011;11833;52.554;13.554;2023-02-05T09:52:51;5.10;;;3.28;;
23322;SDS011;11833;52.554;13.554;2023-02-05T09:57:52;6.10;;;3.85;;
23322;SDS011;11833;52.554;13.554;2023-02-05T10:00:44;5.05;;;2.95;;
23322;SDS011;11833;52.554;13.554;2023-02-05T10:03:33;4.97;;;3.22;;
23322;SDS011;11833;52.554;13.554;2023-02-05T10:06:15;5.40;;;3.30;;
23322;SDS011;11833;52.554;13.554;2023-02-05T10:09:20;4.13;;;2.70;;
23322;SDS011;11833;52.554;13.554;2023-02-05T10:23:14;4.45;;;2.45;;
23322;SDS011;11833;52.554;13.554;2023-02-05T10:31:12;4.30;;;2.85;;
23322;SDS011;11833;52.554;13.554;2023-02-05T10:36:54;4.43;;;2.70;;
23322;SDS011;11833;52.554;13.554;2023-02-05T10:39:21;4.85;;;2.63;;
23322;SDS011;11833;52.554;13.554;2023-02-05T10:42:33;5.40;;;2.80;;
23322;SDS011;11833;52.554;13.554;2023-02-05T10:44:48;3.25;;;2.47;;
23322;SDS011;11833;52.554;13.554;2023-02-05T10:47:22;2.88;;;2.30;;
23322;SDS011;11833;52.554;13.554;2023-02-05T10:50:45;4.28;;;2.15;;
23322;SDS011;11833;52.554;13.554;2023-02-05T10:53:24;4.05;;;2.58;;
23322;SDS011;11833;52.554;13.554;2023-02-05T10:55:52;4.80;;;2.20;;
23322;SDS011;11833;52.554;13.554;2023-02-05T11:06:46;3.83;;;1.60;;
23322;SDS011;11833;52.554;13.554;2023-02-05T11:11:50;3.70;;;1.50;;
23322;SDS011;11833;52.554;13.554;2023-02-05T11:14:24;5.00;;;2.63;;
23322;SDS011;11833;52.554;13.554;2023-02-05T11:16:57;6.55;;;1.70;;
23322;SDS011;11833;52.554;13.554;2023-02-05T11:19:33;4.82;;;1.73;;
23322;SDS011;11833;52.554;13.554;2023-02-05T11:22:00;3.20;;;1.80;;
23322;SDS011;11833;52.554;13.554;2023-02-05T11:29:50;2.80;;;1.50;;
23322;SDS011;11833;52.554;13.554;2023-02-05T11:32:22;1.92;;;1.45;;
23322;SDS011;11833;52.554;13.554;2023-02-05T11:35:07;2.95;;;1.42;;
23322;SDS011;11833;52.554;13.554;2023-02-05T11:37:45;2.58;;;1.67;;
23322;SDS011;11833;52.554;13.554;2023-02-05T11:40:33;4.88;;;2.72;;
23322;SDS011;11833;52.554;13.554;2023-02-05T11:45:32;7.50;;;3.63;;
23322;SDS011;11833;52.554;13.554;2023-02-05T11:48:03;8.75;;;2.70;;
23322;SDS011;11833;52.554;13.554;2023-02-05T11:50:45;5.43;;;2.38;;
23322;SDS011;11833;52.554;13.554;2023-02-05T11:53:13;5.78;;;2.28;;
23322;SDS011;11833;52.554;13.554;2023-02-05T11:55:41;5.70;;;2.63;;
23322;SDS011;11833;52.554;13.554;2023-02-05T12:00:53;2.58;;;1.80;;
23322;SDS011;11833;52.554;13.554;2023-02-05T12:03:24;4.40;;;1.52;;
23322;SDS011;11833;52.554;13.554;2023-02-05T12:06:06;3.65;;;2.10;;
23322;SDS011;11833;52.554;13.554;2023-02-05T12:08:47;4.07;;;2.53;;
23322;SDS011;11833;52.554;13.554;2023-02-05T12:14:00;2.70;;;1.90;;
23322;SDS011;11833;52.554;13.554;2023-02-05T12:19:47;3.95;;;2.13;;
23322;SDS011;11833;52.554;13.554;2023-02-05T12:22:28;2.38;;;1.33;;
23322;SDS011;11833;52.554;13.554;2023-02-05T12:25:31;2.58;;;1.40;;
23322;SDS011;11833;52.554;13.554;2023-02-05T12:28:14;2.97;;;1.88;;
23322;SDS011;11833;52.554;13.554;2023-02-05T12:36:33;5.25;;;1.90;;
23322;SDS011;11833;52.554;13.554;2023-02-05T13:02:12;5.22;;;1.55;;
23322;SDS011;11833;52.554;13.554;2023-02-05T13:07:56;3.25;;;1.70;;
23322;SDS011;11833;52.554;13.554;2023-02-05T13:10:35;4.80;;;1.98;;
23322;SDS011;11833;52.554;13.554;2023-02-05T13:13:18;3.05;;;1.70;;
23322;SDS011;11833;52.554;13.554;2023-02-05T13:16:09;2.80;;;1.60;;
23322;SDS011;11833;52.554;13.554;2023-02-05T13:18:40;2.00;;;1.60;;
23322;SDS011;11833;52.554;13.554;2023-02-05T13:21:16;4.25;;;1.70;;
23322;SDS011;11833;52.554;13.554;2023-02-05T13:24:24;2.40;;;1.45;;
23322;SDS011;11833;52.554;13.554;2023-02-05T13:27:47;2.05;;;1.58;;
23322;SDS011;11833;52.554;13.554;2023-02-05T13:30:36;2.70;;;1.77;;
23322;SDS011;11833;52.554;13.554;2023-02-05T13:33:07;2.88;;;1.67;;
23322;SDS011;11833;52.554;13.554;2023-02-05T13:35:44;2.72;;;1.50;;
23322;SDS011;11833;52.554;13.554;2023-02-05T13:47:53;3.75;;;1.40;;
23322;SDS011;11833;52.554;13.554;2023-02-05T13:50:40;6.43;;;1.85;;
23322;SDS011;11833;52.554;13.554;2023-02-05T13:59:02;3.17;;;1.38;;
23322;SDS011;11833;52.554;13.554;2023-02-05T14:01:40;1.92;;;1.38;;
23322;SDS011;11833;52.554;13.554;2023-02-05T14:04:27;2.63;;;1.50;;
23322;SDS011;11833;52.554;13.554;2023-02-05T14:07:07;3.20;;;1.17;;
23322;SDS011;11833;52.554;13.554;2023-02-05T14:09:57;3.20;;;1.50;;
23322;SDS011;11833;52.554;13.554;2023-02-05T14:12:27;4.45;;;1.42;;
23322;SDS011;11833;52.554;13.554;2023-02-05T14:20:28;2.03;;;1.30;;
23322;SDS011;11833;52.554;13.554;2023-02-05T14:22:56;2.78;;;1.58;;
23322;SDS011;11833;52.554;13.554;2023-02-05T14:30:45;4.07;;;1.60;;
23322;SDS011;11833;52.554;13.554;2023-02-05T14:33:31;2.03;;;1.42;;
23322;SDS011;11833;52.554;13.554;2023-02-05T14:38:54;2.10;;;1.23;;
23322;SDS011;11833;52.554;13.554;2023-02-05T14:41:27;2.05;;;1.42;;
23322;SDS011;11833;52.554;13.554;2023-02-05T14:44:01;2.17;;;1.60;;
23322;SDS011;11833;52.554;13.554;2023-02-05T14:46:35;2.50;;;1.58;;
23322;SDS011;11833;52.554;13.554;2023-02-05T14:49:20;2.30;;;1.52;;
23322;SDS011;11833;52.554;13.554;2023-02-05T14:51:57;2.00;;;1.40;;
23322;SDS011;11833;52.554;13.554;2023-02-05T14:54:44;3.00;;;2.00;;
23322;SDS011;11833;52.554;13.554;2023-02-05T15:00:26;2.05;;;1.52;;
23322;SDS011;11833;52.554;13.554;2023-02-05T15:13:21;3.10;;;1.60;;
23322;SDS011;11833;52.554;13.554;2023-02-05T15:21:17;2.33;;;1.52;;
23322;SDS011;11833;52.554;13.554;2023-02-05T15:26:54;2.28;;;1.45;;
23322;SDS011;11833;52.554;13.554;2023-02-05T15:34:42;2.25;;;1.50;;
23322;SDS011;11833;52.554;13.554;2023-02-05T15:37:32;3.38;;;1.98;;
23322;SDS011;11833;52.554;13.554;2023-02-05T15:40:16;5.25;;;1.98;;
23322;SDS011;11833;52.554;13.554;2023-02-05T15:42:48;3.83;;;1.75;;
23322;SDS011;11833;52.554;13.554;2023-02-05T15:48:13;1.85;;;1.52;;
23322;SDS011;11833;52.554;13.554;2023-02-05T15:50:49;4.43;;;1.55;;
23322;SDS011;11833;52.554;13.554;2023-02-05T15:56:10;5.78;;;1.60;;
23322;SDS011;11833;52.554;13.554;2023-02-05T15:58:49;2.95;;;1.75;;
23322;SDS011;11833;52.554;13.554;2023-02-05T16:01:25;4.07;;;2.08;;
23322;SDS011;11833;52.554;13.554;2023-02-05T16:03:57;5.68;;;2.40;;
23322;SDS011;11833;52.554;13.554;2023-02-05T16:06:27;3.38;;;1.85;;
23322;SDS011;11833;52.554;13.554;2023-02-05T16:08:54;2.55;;;1.92;;
23322;SDS011;11833;52.554;13.554;2023-02-05T16:11:25;4.25;;;2.22;;
23322;SDS011;11833;52.554;13.554;2023-02-05T16:14:03;3.45;;;2.60;;
23322;SDS011;11833;52.554;13.554;2023-02-05T16:16:38;4.15;;;1.75;;
23322;SDS011;11833;52.554;13.554;2023-02-05T16:19:58;3.90;;;2.40;;
23322;SDS011;11833;52.554;13.554;2023-02-05T16:22:35;4.07;;;1.98;;
23322;SDS011;11833;52.554;13.554;2023-02-05T16:27:56;3.03;;;1.85;;
23322;SDS011;11833;52.554;13.554;2023-02-05T16:30:33;2.88;;;1.92;;
23322;SDS011;11833;52.554;13.554;2023-02-05T16:33:07;5.38;;;2.40;;
23322;SDS011;11833;52.554;13.554;2023-02-05T16:35:55;4.53;;;2.40;;
23322;SDS011;11833;52.554;13.554;2023-02-05T16:38:26;4.38;;;2.53;;
23322;SDS011;11833;52.554;13.554;2023-02-05T16:40:53;5.05;;;3.33;;
23322;SDS011;11833;52.554;13.554;2023-02-05T16:43:38;6.28;;;3.30;;
23322;SDS011;11833;52.554;13.554;2023-02-05T16:48:31;6.25;;;4.03;;
23322;SDS011;11833;52.554;13.554;2023-02-05T16:50:58;7.55;;;4.07;;
23322;SDS011;11833;52.554;13.554;2023-02-05T16:53:35;6.45;;;3.50;;
23322;SDS011;11833;52.554;13.554;2023-02-05T16:59:09;3.63;;;2.85;;
23322;SDS011;11833;52.554;13.554;2023-02-05T17:01:44;6.07;;;2.58;;
23322;SDS011;11833;52.554;13.554;2023-02-05T17:04:23;6.40;;;3.00;;
23322;SDS011;11833;52.554;13.554;2023-02-05T17:06:55;5.00;;;2.92;;
23322;SDS011;11833;52.554;13.554;2023-02-05T17:09:37;7.30;;;2.97;;
23322;SDS011;11833;52.554;13.554;2023-02-05T17:14:56;4.68;;;3.20;;
23322;SDS011;11833;52.554;13.554;2023-02-05T17:17:55;4.45;;;2.75;;
23322;SDS011;11833;52.554;13.554;2023-02-05T17:20:30;4.78;;;2.95;;
23322;SDS011;11833;52.554;13.554;2023-02-05T17:25:35;5.97;;;3.05;;
23322;SDS011;11833;52.554;13.554;2023-02-05T17:28:03;5.70;;;2.83;;
23322;SDS011;11833;52.554;13.554;2023-02-05T17:30:33;6.43;;;3.47;;
23322;SDS011;11833;52.554;13.554;2023-02-05T17:32:59;7.65;;;3.35;;
23322;SDS011;11833;52.554;13.554;2023-02-05T17:35:24;5.13;;;3.22;;
23322;SDS011;11833;52.554;13.554;2023-02-05T17:37:54;5.65;;;2.72;;
23322;SDS011;11833;52.554;13.554;2023-02-05T17:40:22;6.38;;;3.13;;
23322;SDS011;11833;52.554;13.554;2023-02-05T17:42:47;5.15;;;3.00;;
23322;SDS011;11833;52.554;13.554;2023-02-05T17:45:33;5.30;;;2.67;;
23322;SDS011;11833;52.554;13.554;2023-02-05T17:48:03;6.28;;;3.47;;
23322;SDS011;11833;52.554;13.554;2023-02-05T17:50:34;6.40;;;4.20;;
23322;SDS011;11833;52.554;13.554;2023-02-05T17:53:02;9.82;;;4.43;;
23322;SDS011;11833;52.554;13.554;2023-02-05T17:55:28;4.85;;;3.65;;
23322;SDS011;11833;52.554;13.554;2023-02-05T17:57:54;9.32;;;3.25;;
23322;SDS011;11833;52.554;13.554;2023-02-05T18:00:24;4.75;;;3.47;;
23322;SDS011;11833;52.554;13.554;2023-02-05T18:02:55;5.07;;;3.33;;
23322;SDS011;11833;52.554;13.554;2023-02-05T18:05:22;8.20;;;3.70;;
23322;SDS011;11833;52.554;13.554;2023-02-05T18:07:48;6.50;;;3.60;;
23322;SDS011;11833;52.554;13.554;2023-02-05T18:10:18;8.40;;;3.60;;
23322;SDS011;11833;52.554;13.554;2023-02-05T18:12:51;5.65;;;3.72;;
23322;SDS011;11833;52.554;13.554;2023-02-05T18:15:17;4.60;;;3.10;;
23322;SDS011;11833;52.554;13.554;2023-02-05T18:17:44;7.10;;;4.03;;
23322;SDS011;11833;52.554;13.554;2023-02-05T18:20:10;6.65;;;3.47;;
23322;SDS011;11833;52.554;13.554;2023-02-05T18:22:37;5.65;;;3.20;;
23322;SDS011;11833;52.554;13.554;2023-02-05T18:25:03;5.03;;;3.15;;
23322;SDS011;11833;52.554;13.554;2023-02-05T18:27:32;6.40;;;3.50;;
23322;SDS011;11833;52.554;13.554;2023-02-05T18:29:58;3.65;;;2.65;;
23322;SDS011;11833;52.554;13.554;2023-02-05T18:32:24;5.85;;;3.33;;
23322;SDS011;11833;52.554;13.554;2023-02-05T18:34:50;5.05;;;3.58;;
23322;SDS011;11833;52.554;13.554;2023-02-05T18:37:18;6.57;;;2.78;;
23322;SDS011;11833;52.554;13.554;2023-02-05T18:39:45;6.03;;;3.65;;
23322;SDS011;11833;52.554;13.554;2023-02-05T18:42:14;7.60;;;3.58;;
23322;SDS011;11833;52.554;13.554;2023-02-05T18:44:40;5.63;;;4.05;;
23322;SDS011;11833;52.554;13.554;2023-02-05T18:47:06;5.68;;;4.03;;
23322;SDS011;11833;52.554;13.554;2023-02-05T18:49:34;7.28;;;4.00;;
23322;SDS011;11833;52.554;13.554;2023-02-05T18:52:00;9.10;;;4.22;;
23322;SDS011;11833;52.554;13.554;2023-02-05T18:54:29;7.75;;;4.20;;
23322;SDS011;11833;52.554;13.554;2023-02-05T18:56:56;8.00;;;4.85;;
23322;SDS011;11833;52.554;13.554;2023-02-05T18:59:22;8.20;;;4.18;;
23322;SDS011;11833;52.554;13.554;2023-02-05T19:01:49;6.90;;;4.18;;
23322;SDS011;11833;52.554;13.554;2023-02-05T19:04:16;6.85;;;4.53;;
23322;SDS011;11833;52.554;13.554;2023-02-05T19:06:46;9.18;;;4.40;;
23322;SDS011;11833;52.554;13.554;2023-02-05T19:09:20;6.35;;;3.92;;
23322;SDS011;11833;52.554;13.554;2023-02-05T19:11:48;10.82;;;5.38;;